| time (UTC) | temp C | wind direction | speed KPH | gust KPH | rain 1hr cm | rain 24hr cm | rain mn cm | humidity % | barometer mb |
| 20260507110026 | 17 | 5 | 6.4 | 16.1 | 0.00 | 0.00 | 0.00 | 90 | 1014.9 |
| 20260507104537 | 17 | 27 | 3.2 | 16.1 | 0.00 | 0.00 | 0.00 | 90 | 1014.4 |
| 20260507103026 | 17 | 355 | 3.2 | 12.9 | 0.00 | 0.00 | 0.00 | 90 | 1014.6 |
| 20260507101525 | 17 | 350 | 3.2 | 16.1 | 0.00 | 0.00 | 0.00 | 90 | 1014.4 |
| 20260507100020 | 17 | 15 | 4.8 | 17.7 | 0.00 | 0.00 | 0.00 | 90 | 1014.1 |
| 20260507094519 | 17 | 13 | 4.8 | 16.1 | 0.00 | 0.00 | 0.00 | 89 | 1013.9 |
| 20260507093020 | 17 | 317 | 6.4 | 19.3 | 0.00 | 0.00 | 0.00 | 89 | 1013.8 |
| 20260507091519 | 17 | 40 | 3.2 | 16.1 | 0.00 | 0.00 | 0.00 | 89 | 1013.9 |
| 20260507090017 | 17 | 64 | 3.2 | 16.1 | 0.00 | 0.00 | 0.00 | 89 | 1013.8 |
| 20260507084517 | 17 | 29 | 3.2 | 17.7 | 0.00 | 0.00 | 0.00 | 88 | 1013.8 |
| 20260507083015 | 17 | 38 | 8.0 | 17.7 | 0.00 | 0.00 | 0.00 | 88 | 1013.7 |
| 20260507081520 | 17 | 78 | 8.0 | 22.5 | 0.00 | 0.00 | 0.00 | 88 | 1013.9 |
| 20260507080012 | 17 | 41 | 6.4 | 17.7 | 0.00 | 0.00 | 0.00 | 87 | 1014.0 |
| 20260507074512 | 17 | 19 | 6.4 | 19.3 | 0.00 | 0.00 | 0.00 | 87 | 1013.9 |
| 20260507073010 | 17 | 56 | 8.0 | 19.3 | 0.00 | 0.00 | 0.00 | 87 | 1013.9 |
| 20260507071508 | 17 | 60 | 3.2 | 20.9 | 0.00 | 0.00 | 0.00 | 86 | 1014.1 |
| 20260507070012 | 17 | 346 | 9.7 | 19.3 | 0.00 | 0.00 | 0.00 | 86 | 1014.2 |
| 20260507064506 | 18 | 22 | 8.0 | 27.4 | 0.00 | 0.00 | 0.00 | 86 | 1014.2 |
| 20260507063007 | 18 | 5 | 6.4 | 17.7 | 0.00 | 0.00 | 0.00 | 87 | 1014.3 |
| 20260507061503 | 18 | 331 | 8.0 | 22.5 | 0.00 | 0.00 | 0.00 | 87 | 1014.3 |
| 20260507060105 | 18 | 345 | 8.0 | 17.7 | 0.00 | 0.00 | 0.00 | 87 | 1014.3 |
| 20260507054559 | 18 | 337 | 6.4 | 17.7 | 0.00 | 0.00 | 0.00 | 86 | 1014.2 |
| 20260507053057 | 18 | 350 | 6.4 | 20.9 | 0.00 | 0.00 | 0.00 | 86 | 1014.1 |
| 20260507051555 | 18 | 56 | 8.0 | 24.1 | 0.00 | 0.00 | 0.00 | 86 | 1014.0 |
| 20260507050152 | 18 | 5 | 6.4 | 17.7 | 0.00 | 0.00 | 0.00 | 87 | 1013.5 |
| 20260507044605 | 18 | 36 | 6.4 | 17.7 | 0.00 | 0.00 | 0.00 | 86 | 1013.6 |
| 20260507043102 | 18 | 80 | 4.8 | 24.1 | 0.00 | 0.00 | 0.00 | 86 | 1013.7 |
| 20260507041554 | 18 | 24 | 8.0 | 24.1 | 0.00 | 0.00 | 0.00 | 86 | 1013.7 |
| 20260507040046 | 18 | 317 | 6.4 | 17.7 | 0.00 | 0.00 | 0.00 | 85 | 1013.8 |
| 20260507034544 | 19 | 21 | 8.0 | 19.3 | 0.00 | 0.00 | 0.00 | 85 | 1013.4 |
| 20260507033043 | 19 | 13 | 11.3 | 24.1 | 0.00 | 0.00 | 0.00 | 84 | 1013.5 |
| 20260507031545 | 19 | 343 | 8.0 | 19.3 | 0.00 | 0.00 | 0.00 | 84 | 1013.5 |
| 20260507030038 | 19 | 326 | 11.3 | 22.5 | 0.00 | 0.00 | 0.00 | 83 | 1013.4 |
| 20260507024534 | 20 | 296 | 6.4 | 22.5 | 0.00 | 0.00 | 0.00 | 83 | 1012.9 |
| 20260507023033 | 20 | 11 | 6.4 | 19.3 | 0.00 | 0.00 | 0.00 | 82 | 1012.6 |
| 20260507021528 | 20 | 339 | 8.0 | 17.7 | 0.00 | 0.00 | 0.00 | 82 | 1012.3 |
| 20260507020042 | 20 | 319 | 8.0 | 20.9 | 0.00 | 0.00 | 0.00 | 82 | 1012.0 |
| 20260507014521 | 20 | 41 | 8.0 | 19.3 | 0.00 | 0.00 | 0.00 | 82 | 1011.4 |
| 20260507013022 | 21 | 5 | 8.0 | 20.9 | 0.00 | 0.00 | 0.00 | 82 | 1011.4 |
| 20260507011523 | 21 | 329 | 4.8 | 19.3 | 0.00 | 0.00 | 0.00 | 82 | 1011.2 |
| 20260507010014 | 21 | 20 | 3.2 | 12.9 | 0.00 | 0.00 | 0.00 | 84 | 1011.1 |
| 20260507004512 | 22 | 308 | 8.0 | 16.1 | 0.00 | 0.00 | 0.00 | 83 | 1010.7 |
| 20260507003010 | 22 | 314 | 8.0 | 22.5 | 0.00 | 0.00 | 0.00 | 83 | 1010.4 |
| 20260507001525 | 22 | 17 | 9.7 | 24.1 | 0.00 | 0.00 | 0.00 | 83 | 1010.1 |
| 20260507000003 | 23 | 72 | 8.0 | 20.9 | 0.00 | 0.00 | 0.00 | 82 | 1009.8 |
| 20260506234503 | 25 | 348 | 9.7 | 27.4 | 0.00 | 0.00 | 0.00 | 79 | 1009.7 |
| 20260506233102 | 29 | 338 | 0.0 | 0.0 | 0.00 | 0.00 | 0.00 | 79 | 1009.1 |
| 20260506231607 | 29 | 292 | 0.0 | 0.0 | 0.00 | 0.00 | 0.00 | 79 | 1008.8 |
| 20260506230113 | 29 | 248 | 0.0 | 0.0 | 0.00 | 0.00 | 0.00 | 80 | 1008.6 |
| 20260506224557 | 29 | 248 | 0.0 | 0.0 | 0.00 | 0.00 | 0.00 | 81 | 1008.6 |
| 20260506223103 | 28 | 248 | 0.0 | 4.8 | 0.00 | 0.00 | 0.00 | 83 | 1008.5 |
| 20260506221610 | 28 | 219 | 3.2 | 6.4 | 0.00 | 0.00 | 0.00 | 81 | 1008.6 |
| 20260506220056 | 29 | 246 | 4.8 | 9.7 | 0.00 | 0.00 | 0.00 | 80 | 1008.5 |
| 20260506214556 | 28 | 238 | 6.4 | 14.5 | 0.00 | 0.00 | 0.00 | 81 | 1008.4 |
| 20260506213055 | 28 | 161 | 4.8 | 12.9 | 0.00 | 0.00 | 0.00 | 82 | 1008.6 |
| 20260506211554 | 29 | 179 | 6.4 | 11.3 | 0.00 | 0.00 | 0.00 | 82 | 1008.7 |
| 20260506210056 | 28 | 185 | 3.2 | 11.3 | 0.00 | 0.00 | 0.00 | 85 | 1008.8 |
| 20260506204550 | 28 | 225 | 4.8 | 16.1 | 0.00 | 0.00 | 0.00 | 84 | 1008.8 |
| 20260506203045 | 27 | 182 | 6.4 | 17.7 | 0.00 | 0.00 | 0.00 | 86 | 1009.0 |
| 20260506201544 | 27 | 208 | 8.0 | 12.9 | 0.00 | 0.00 | 0.00 | 87 | 1009.3 |
| 20260506200042 | 27 | 194 | 11.3 | 17.7 | 0.00 | 0.00 | 0.00 | 85 | 1009.4 |
| 20260506194541 | 27 | 180 | 11.3 | 17.7 | 0.00 | 0.00 | 0.00 | 86 | 1009.4 |
| 20260506193043 | 27 | 180 | 6.4 | 12.9 | 0.00 | 0.00 | 0.00 | 88 | 1009.6 |
| 20260506191537 | 27 | 140 | 8.0 | 14.5 | 0.00 | 0.00 | 0.00 | 88 | 1009.6 |
| 20260506190035 | 27 | 131 | 9.7 | 12.9 | 0.00 | 0.00 | 0.00 | 89 | 1010.0 |
| 20260506184537 | 27 | 169 | 4.8 | 6.4 | 0.00 | 0.00 | 0.00 | 88 | 1010.0 |
| 20260506183030 | 26 | 150 | 1.6 | 12.9 | 0.00 | 0.00 | 0.00 | 90 | 1010.2 |
| 20260506181536 | 26 | 80 | 4.8 | 11.3 | 0.00 | 0.00 | 0.00 | 93 | 1010.5 |
| 20260506180026 | 26 | 67 | 1.6 | 6.4 | 0.00 | 0.00 | 0.00 | 92 | 1010.7 |
| 20260506174523 | 25 | 83 | 8.0 | 11.3 | 0.00 | 0.00 | 0.00 | 94 | 1010.9 |
| 20260506173023 | 25 | 92 | 4.8 | 12.9 | 0.00 | 0.00 | 0.00 | 94 | 1011.2 |
| 20260506171527 | 25 | 93 | 4.8 | 11.3 | 0.00 | 0.00 | 0.00 | 94 | 1011.3 |
| 20260506170027 | 25 | 126 | 8.0 | 14.5 | 0.00 | 0.00 | 0.00 | 93 | 1011.4 |
| 20260506164541 | 25 | 121 | 4.8 | 11.3 | 0.00 | 0.00 | 0.00 | 92 | 1011.3 |
| 20260506163022 | 26 | 125 | 8.0 | 14.5 | 0.00 | 0.00 | 0.00 | 92 | 1011.2 |
| 20260506161522 | 25 | 124 | 12.9 | 16.1 | 0.00 | 0.00 | 0.00 | 93 | 1011.0 |
| 20260506160017 | 25 | 119 | 11.3 | 17.7 | 0.00 | 0.00 | 0.00 | 92 | 1010.7 |
| 20260506154515 | 25 | 133 | 6.4 | 14.5 | 0.00 | 0.00 | 0.00 | 93 | 1010.8 |
| 20260506153013 | 25 | 147 | 6.4 | 12.9 | 0.00 | 0.00 | 0.00 | 93 | 1010.8 |
| 20260506151514 | 25 | 124 | 6.4 | 12.9 | 0.00 | 0.00 | 0.00 | 94 | 1010.3 |
| 20260506150008 | 25 | 132 | 12.9 | 17.7 | 0.00 | 0.00 | 0.00 | 94 | 1010.2 |
| 20260506144511 | 25 | 130 | 8.0 | 16.1 | 0.00 | 0.00 | 0.00 | 95 | 1010.2 |
| 20260506143006 | 24 | 125 | 11.3 | 24.1 | 0.00 | 0.00 | 0.00 | 96 | 1009.9 |
| 20260506141511 | 24 | 140 | 11.3 | 19.3 | 0.00 | 0.00 | 0.00 | 97 | 1009.8 |
| 20260506140002 | 23 | 121 | 12.9 | 16.1 | 0.00 | 0.00 | 0.00 | 98 | 1009.7 |
| 20260506134502 | 23 | 121 | 11.3 | 16.1 | 0.00 | 0.00 | 0.00 | 98 | 1009.8 |
| 20260506133003 | 23 | 123 | 9.7 | 17.7 | 0.00 | 0.00 | 0.00 | 98 | 1009.9 |
| 20260506131502 | 23 | 117 | 9.7 | 16.1 | 0.00 | 0.00 | 0.00 | 99 | 1009.9 |
| 20260506130000 | 23 | 118 | 8.0 | 16.1 | 0.00 | 0.00 | 0.00 | 99 | 1009.9 |
| 20260506124601 | 23 | 119 | 11.3 | 17.7 | 0.00 | 0.00 | 0.00 | 99 | 1009.8 |
| 20260506123100 | 23 | 133 | 8.0 | 14.5 | 0.00 | 0.00 | 0.00 | 99 | 1009.7 |
| 20260506121601 | 23 | 148 | 9.7 | 16.1 | 0.00 | 0.00 | 0.00 | 99 | 1009.6 |
| 20260506120110 | 23 | 136 | 8.0 | 14.5 | 0.00 | 0.00 | 0.00 | 98 | 1009.4 |
| 20260506114559 | 23 | 151 | 8.0 | 12.9 | 0.00 | 0.00 | 0.00 | 98 | 1009.4 |
| 20260506113058 | 23 | 153 | 6.4 | 12.9 | 0.00 | 0.00 | 0.00 | 98 | 1009.3 |
| 20260506111557 | 23 | 138 | 8.0 | 14.5 | 0.00 | 0.00 | 0.00 | 98 | 1009.0 |